Meyersdale, PA (15552)

2:08 PM EDT on September 02, 2015 (GMT -0400)
Highpoint | | Change Station
CLOSE
Current Station
Personal Weather Station
Location: Salisbury, PA
Elevation: 2293 ft
Nearby Weather Stations

Elev 2293 ft 39.78 °N, 79.10 °W | Updated 0 second ago

Thunderstorm
Thunderstorm
75.7 °F
Feels Like 77 °F
N
0.0
Wind Variable Wind from SE
Gusts 3.8 mph

Today
High -- | Low -- °F
--% Chance of Precip.
Yesterday
High -- | Low -- °F
Precip. -- in
6:44 AM 7:46 PM
Waning Gibbous, 78% visible
Pressure 30.11 in
Visibility 5.0 miles
Clouds Scattered Clouds 500 ft
Scattered Clouds 3100 ft
Mostly Cloudy 5000 ft
Heat Index 77 °F
Dew Point 69 °F
Humidity 80%
Rainfall 0.00 in
Snow Depth Not available.
UV 5 out of 12
Pollen 10.00 out of 12
Air Quality Not available.
Flu Activity Not available.
METAR KCBE 021802Z AUTO 34010G24KT 5SM SCT005 SCT031 BKN050 25/20 A3011 RMK AO1
Pressure 30.11 in
Visibility 5.0 miles
Clouds Scattered Clouds 500 ft
Scattered Clouds 3100 ft
Mostly Cloudy 5000 ft
Heat Index 77 °F
Dew Point 69 °F
Humidity 80%
Rainfall 0.00 in
Snow Depth Not available.
UV 5 out of 12
Pollen 10.00 out of 12
Air Quality Not available.
Flu Activity Not available.
METAR KCBE 021802Z AUTO 34010G24KT 5SM SCT005 SCT031 BKN050 25/20 A3011 RMK AO1
Nowcast | as of 12:59 PM EDT on September 2, 2015

Isolated showers and thunderstorms will be across south central Pennsylvania this afternoon. Most of the activity will be south of a Johnstown...Chambersburg line. A brief heavy downpour will be possible. The showers and storms are moving southeast at 15 mph.

×

10-Day Weather Forecast

×

Almanac

Astronomy

Sep. 02, 2015 Rise Set
Actual Time
Civil Twilight
Nautical Twilight
Astronomical Twilight
Moon
Length of Visible Light
Length of Day
Tomorrow will be .
, % of the Moon is Illuminated

Today's Extremes

State Highs State Lows

Community

WunderPhotos

Upload Photos

1,851,789 photos uploaded!

WunderBlogs® & News

Nearby

Air Quality

  Air Quality AQ Index Pollutant
Not available.

Snow Depth

Station Depth Elevation

Earthquake Activity

City Distance Mag. Time & Date
Minimum magnitude displayed is 2.5.

Coastal Water Temperatures

Place Temperature

Stations

Nearby Weather Stations

Station Location Temp. Windchill Dew Point Humidity Wind Precip. Elev Updated Type